Time;durP1;ratioP1;P1;durP2;ratioP2;P2;SDS_P1;SDS_P2;PMS_P1;PMS_P2;Temp;Humidity;BMP_temperature;BMP_pressure;BME280_temperature;BME280_humidity;BME280_pressure;Samples;Min_cycle;Max_cycle;Signal;HPM_P1;HPM_P2
2023/07/23 00:01:11;;;;;;;17.40;8.48;;;;;;;22.68;85.84;97607.69;10262342;28;20519;-50
2023/07/23 00:06:10;;;;;;;16.30;8.93;;;;;;;22.60;85.95;97594.03;10261280;28;20070;-52
2023/07/23 00:11:09;;;;;;;12.63;8.73;;;;;;;22.63;86.43;97607.09;10262026;28;20106;-50
2023/07/23 00:16:08;;;;;;;14.07;8.18;;;;;;;22.55;86.64;97607.50;10258227;28;20551;-53
2023/07/23 00:21:07;;;;;;;19.05;9.25;;;;;;;22.54;86.66;97602.25;10257154;28;20480;-50
2023/07/23 00:26:06;;;;;;;16.08;8.80;;;;;;;22.52;86.40;97590.91;10252465;28;20954;-52
2023/07/23 00:31:05;;;;;;;17.10;9.38;;;;;;;22.37;86.63;97574.91;10255755;28;20401;-52
2023/07/23 00:36:04;;;;;;;13.70;8.10;;;;;;;22.07;89.34;97626.69;10253362;28;20036;-52
2023/07/23 00:41:03;;;;;;;14.93;8.15;;;;;;;22.14;88.53;97612.22;10256750;28;20113;-52
2023/07/23 00:46:02;;;;;;;13.82;8.40;;;;;;;22.19;88.04;97607.56;10256944;28;20037;-51
2023/07/23 00:51:01;;;;;;;15.05;8.32;;;;;;;22.17;87.88;97612.06;10258553;28;20044;-52
2023/07/23 00:56:00;;;;;;;13.88;7.93;;;;;;;22.10;87.80;97613.31;10256176;28;20120;-52
2023/07/23 01:01:00;;;;;;;12.05;7.57;;;;;;;22.08;87.62;97612.53;10255959;28;20186;-52
2023/07/23 01:06:02;;;;;;;13.90;7.03;;;;;;;21.60;89.90;97748.66;10255539;28;20128;-52
2023/07/23 01:11:04;;;;;;;16.17;10.02;;;;;;;20.73;96.73;97777.88;10256848;28;20125;-51
2023/07/23 01:16:07;;;;;;;15.65;11.02;;;;;;;20.81;98.18;97799.50;10255368;28;20049;-52
2023/07/23 01:21:06;;;;;;;18.40;12.55;;;;;;;21.00;98.18;97802.22;10255610;28;20080;-51
2023/07/23 01:26:07;;;;;;;20.33;12.93;;;;;;;21.16;98.45;97809.50;10254587;28;20591;-50
2023/07/23 01:31:07;;;;;;;20.58;13.65;;;;;;;21.43;96.53;97803.06;10254494;28;20157;-52
2023/07/23 01:36:06;;;;;;;19.70;13.52;;;;;;;21.50;95.24;97800.97;10270995;28;20072;-52
2023/07/23 01:41:06;;;;;;;16.80;14.05;;;;;;;21.73;93.54;97813.16;10251550;28;20134;-51
2023/07/23 01:46:05;;;;;;;20.08;13.98;;;;;;;21.83;92.49;97793.34;10249215;28;20651;-52
2023/07/23 01:51:04;;;;;;;21.58;13.68;;;;;;;21.91;92.03;97803.56;10253086;28;20488;-52
2023/07/23 01:56:03;;;;;;;23.25;13.20;;;;;;;21.97;91.82;97805.94;10255941;28;20546;-53
2023/07/23 02:01:04;;;;;;;20.13;13.63;;;;;;;22.05;91.14;97808.22;10254101;28;20132;-49
2023/07/23 02:06:03;;;;;;;17.48;13.10;;;;;;;22.09;90.99;97794.81;10253863;28;20128;-53
2023/07/23 02:11:03;;;;;;;18.15;13.50;;;;;;;22.12;90.15;97789.38;10254463;28;20054;-51
2023/07/23 02:16:02;;;;;;;20.13;14.15;;;;;;;22.16;90.03;97771.59;10254232;28;20070;-52
2023/07/23 02:21:01;;;;;;;19.15;14.23;;;;;;;22.13;89.98;97775.25;10253544;28;20084;-51
2023/07/23 02:26:00;;;;;;;18.85;14.07;;;;;;;22.12;89.61;97757.66;10251252;28;20419;-52
2023/07/23 02:31:00;;;;;;;21.92;14.63;;;;;;;22.10;89.81;97763.94;10253474;28;20044;-52
2023/07/23 02:35:59;;;;;;;19.77;15.02;;;;;;;22.12;89.38;97752.38;10253145;28;20065;-52
2023/07/23 02:40:58;;;;;;;21.95;15.60;;;;;;;22.16;88.88;97742.53;10253953;28;20121;-49
2023/07/23 02:45:57;;;;;;;21.92;15.65;;;;;;;21.99;88.66;97710.75;10249559;28;20733;-50
2023/07/23 02:50:56;;;;;;;22.63;15.57;;;;;;;22.14;88.56;97732.00;10250831;28;20290;-52
2023/07/23 02:55:55;;;;;;;20.42;15.63;;;;;;;22.05;89.11;97734.25;10251881;28;20165;-51
2023/07/23 03:00:57;;;;;;;20.42;15.50;;;;;;;21.81;89.64;97723.88;10258141;28;20026;-52
2023/07/23 03:05:56;;;;;;;21.17;15.85;;;;;;;21.81;89.99;97752.94;10259633;28;20070;-50
2023/07/23 03:10:55;;;;;;;20.63;16.33;;;;;;;21.61;90.71;97735.34;10260508;28;20036;-52
2023/07/23 03:15:54;;;;;;;26.23;16.50;;;;;;;21.58;90.90;97751.34;10260761;28;20582;-52
2023/07/23 03:20:53;;;;;;;23.77;17.35;;;;;;;21.58;91.63;97747.84;10256982;28;20058;-51
2023/07/23 03:25:52;;;;;;;24.15;16.50;;;;;;;21.53;91.59;97755.97;10258600;28;20133;-51
2023/07/23 03:30:51;;;;;;;19.48;14.82;;;;;;;21.54;91.62;97760.31;10256559;28;20042;-51
2023/07/23 03:35:50;;;;;;;19.02;15.15;;;;;;;21.59;91.18;97760.13;10260626;28;20038;-49
2023/07/23 03:40:49;;;;;;;19.58;14.45;;;;;;;21.61;91.14;97750.34;10261074;28;20032;-51
2023/07/23 03:45:47;;;;;;;20.52;15.27;;;;;;;21.66;91.14;97765.03;10257506;28;20057;-52
2023/07/23 03:50:46;;;;;;;25.35;16.08;;;;;;;21.50;91.67;97774.56;10260776;28;20128;-52
2023/07/23 03:55:45;;;;;;;21.10;16.08;;;;;;;21.45;92.08;97769.53;10256789;28;20064;-51
2023/07/23 04:00:44;;;;;;;21.15;15.80;;;;;;;21.36;92.64;97764.66;10258986;28;20034;-52
2023/07/23 04:05:43;;;;;;;24.27;16.85;;;;;;;21.28;92.86;97770.25;10257126;28;20053;-52
2023/07/23 04:10:42;;;;;;;25.88;16.45;;;;;;;21.21;93.18;97757.41;10256698;28;20133;-51
2023/07/23 04:15:41;;;;;;;23.02;16.45;;;;;;;21.24;93.14;97768.69;10258786;28;20039;-51
2023/07/23 04:20:41;;;;;;;21.00;15.90;;;;;;;21.40;92.62;97760.09;10258717;28;20484;-49
2023/07/23 04:25:40;;;;;;;22.20;15.73;;;;;;;21.52;92.32;97773.63;10260410;28;20553;-50
2023/07/23 04:30:39;;;;;;;23.77;16.02;;;;;;;21.62;91.96;97771.41;10259867;28;20045;-52
2023/07/23 04:35:38;;;;;;;19.92;15.95;;;;;;;21.82;91.46;97769.63;10262203;28;20490;-50
2023/07/23 04:40:37;;;;;;;21.92;15.23;;;;;;;22.00;90.80;97778.53;10260155;28;20109;-51
2023/07/23 04:45:35;;;;;;;22.55;15.40;;;;;;;22.12;90.08;97772.66;10255521;28;20132;-50
2023/07/23 04:50:34;;;;;;;19.95;14.65;;;;;;;22.31;89.34;97770.84;10256651;28;20030;-51
2023/07/23 04:55:33;;;;;;;22.95;15.05;;;;;;;22.54;88.48;97768.88;10260007;28;20122;-52
2023/07/23 05:00:33;;;;;;;18.23;13.80;;;;;;;22.67;87.45;97762.06;10249351;28;20124;-49
2023/07/23 05:05:31;;;;;;;19.67;14.70;;;;;;;22.45;86.24;97679.41;10221008;28;20081;-52
2023/07/23 05:10:30;;;;;;;20.70;15.32;;;;;;;23.15;85.73;97771.09;10253789;28;20038;-51
2023/07/23 05:15:30;;;;;;;19.98;14.63;;;;;;;23.12;85.45;97768.63;10247994;28;20499;-50
2023/07/23 05:20:29;;;;;;;21.27;14.02;;;;;;;22.92;86.65;97779.34;10248600;28;20078;-52
2023/07/23 05:25:28;;;;;;;18.92;15.73;;;;;;;23.05;86.92;97779.59;10244726;28;20046;-52
2023/07/23 05:30:27;;;;;;;17.83;14.95;;;;;;;23.01;86.98;97784.19;10244140;28;20046;-52
2023/07/23 05:35:26;;;;;;;17.08;14.82;;;;;;;23.16;86.41;97780.78;10243973;28;20073;-53
2023/07/23 05:40:25;;;;;;;23.88;16.30;;;;;;;23.30;86.63;97787.13;10241037;28;20026;-53
2023/07/23 05:45:24;;;;;;;21.80;16.25;;;;;;;23.39;86.32;97778.69;10243413;28;20044;-53
2023/07/23 05:50:23;;;;;;;19.65;16.27;;;;;;;23.37;86.56;97791.16;10244924;28;20541;-51
2023/07/23 05:55:22;;;;;;;23.90;16.77;;;;;;;23.55;86.47;97784.94;10243419;28;20416;-51
2023/07/23 06:00:21;;;;;;;23.98;15.82;;;;;;;23.73;85.84;97783.09;10243443;28;20049;-53
2023/07/23 06:05:19;;;;;;;19.70;14.82;;;;;;;23.81;84.10;97777.38;10234766;28;20049;-51
2023/07/23 06:10:18;;;;;;;19.80;15.85;;;;;;;23.92;83.78;97772.34;10278300;28;20499;-52
2023/07/23 06:15:17;;;;;;;18.35;14.40;;;;;;;24.18;82.43;97776.25;10279098;28;20617;-52
2023/07/23 06:20:16;;;;;;;19.42;13.70;;;;;;;24.56;81.57;97777.66;10278915;28;20892;-53
2023/07/23 06:25:15;;;;;;;20.15;13.50;;;;;;;24.75;79.30;97777.44;10278944;28;20515;-53
2023/07/23 06:30:14;;;;;;;18.73;13.27;;;;;;;24.86;78.36;97764.41;10279212;28;20073;-51
2023/07/23 06:35:13;;;;;;;21.25;12.98;;;;;;;24.83;77.17;97701.75;10283350;28;20041;-52
2023/07/23 06:40:12;;;;;;;18.35;12.77;;;;;;;25.42;73.63;97764.66;10286029;28;20037;-53
2023/07/23 06:45:12;;;;;;;16.42;11.90;;;;;;;25.50;72.49;97760.59;10285757;28;20113;-50
2023/07/23 06:50:11;;;;;;;16.60;10.50;;;;;;;25.88;71.79;97769.81;10279694;28;20126;-49
2023/07/23 06:55:10;;;;;;;18.67;10.82;;;;;;;26.14;68.00;97770.81;10288541;28;20057;-49
2023/07/23 07:00:12;;;;;;;18.00;10.82;;;;;;;26.43;66.42;97776.06;10287732;28;20467;-51
2023/07/23 07:05:11;;;;;;;18.60;11.48;;;;;;;26.67;63.70;97773.59;10288324;28;20065;-49
2023/07/23 07:10:10;;;;;;;18.10;8.95;;;;;;;26.67;60.06;97769.13;10285045;28;20073;-51
2023/07/23 07:15:09;;;;;;;12.43;9.00;;;;;;;26.97;57.32;97782.22;10283598;28;20095;-50
2023/07/23 07:20:09;;;;;;;9.85;6.55;;;;;;;27.06;51.37;97775.44;10278466;28;20148;-52
2023/07/23 07:25:08;;;;;;;12.35;7.72;;;;;;;26.99;53.21;97775.00;10282190;28;20072;-51
2023/07/23 07:30:07;;;;;;;10.07;7.25;;;;;;;27.11;52.68;97789.28;10283124;28;20490;-52
2023/07/23 07:35:06;;;;;;;12.20;5.82;;;;;;;27.23;50.93;97786.75;10288886;28;20487;-52
2023/07/23 07:40:06;;;;;;;10.15;5.90;;;;;;;27.57;50.25;97780.84;10303535;28;20080;-52
2023/07/23 07:45:06;;;;;;;11.15;5.07;;;;;;;27.74;48.56;97776.13;10287439;28;20069;-51
2023/07/23 07:50:07;;;;;;;9.00;4.70;;;;;;;27.91;46.65;97772.25;10287559;28;20061;-50
2023/07/23 07:55:06;;;;;;;8.75;5.00;;;;;;;27.91;45.91;97782.94;10287999;28;20453;-52
2023/07/23 08:00:07;;;;;;;6.55;4.82;;;;;;;28.03;44.46;97780.25;10287733;28;20577;-53
2023/07/23 08:05:07;;;;;;;6.47;4.40;;;;;;;28.12;44.50;97770.75;10288026;28;20080;-50
2023/07/23 08:10:07;;;;;;;7.07;4.45;;;;;;;28.15;43.66;97786.53;10287328;28;20062;-53
2023/07/23 08:15:08;;;;;;;7.13;5.28;;;;;;;28.18;44.18;97788.13;10286055;28;20065;-52
2023/07/23 08:20:07;;;;;;;7.78;5.50;;;;;;;28.20;44.41;97783.56;10288357;28;20432;-53
2023/07/23 08:25:08;;;;;;;8.38;4.72;;;;;;;28.29;44.13;97790.88;10284076;28;20471;-51
2023/07/23 08:30:08;;;;;;;9.27;4.97;;;;;;;28.29;43.79;97755.31;10283568;28;20133;-52
2023/07/23 08:35:08;;;;;;;7.80;4.38;;;;;;;28.47;43.88;97796.69;10283605;28;20129;-50
2023/07/23 08:40:08;;;;;;;5.40;4.72;;;;;;;28.38;42.63;97786.66;10282375;28;20552;-50
2023/07/23 08:45:34;;;;;;;5.53;4.60;;;;;;;28.38;42.05;97786.66;10283459;28;20109;-51
2023/07/23 08:50:33;;;;;;;5.68;4.57;;;;;;;28.37;41.79;97791.16;10283031;28;20118;-50
2023/07/23 08:55:33;;;;;;;7.20;4.43;;;;;;;28.52;41.89;97793.66;10282306;28;20125;-52
2023/07/23 09:00:33;;;;;;;7.30;5.40;;;;;;;28.66;42.82;97786.38;10282615;28;20100;-52
2023/07/23 09:05:32;;;;;;;7.72;4.43;;;;;;;28.42;41.78;97783.66;10282234;28;20126;-52
2023/07/23 09:10:31;;;;;;;7.68;4.97;;;;;;;28.37;41.65;97777.81;10280728;28;20372;-52
2023/07/23 09:15:30;;;;;;;7.95;4.90;;;;;;;28.63;42.68;97780.38;10285630;28;20751;-51
2023/07/23 09:20:29;;;;;;;5.93;4.70;;;;;;;28.63;42.25;97781.22;10281765;28;20568;-50
2023/07/23 09:25:30;;;;;;;6.88;4.68;;;;;;;28.77;42.46;97790.06;10279591;28;20503;-50
2023/07/23 09:30:29;;;;;;;6.47;4.68;;;;;;;29.08;41.35;97776.09;10279486;28;20137;-51
2023/07/23 09:35:30;;;;;;;10.57;5.38;;;;;;;28.99;41.12;97783.94;10281477;28;20057;-52
2023/07/23 09:40:33;;;;;;;6.70;4.95;;;;;;;29.03;41.17;97778.25;10280747;28;20156;-51
2023/07/23 09:45:39;;;;;;;6.53;4.78;;;;;;;29.13;41.45;97781.09;10281361;28;20128;-50
2023/07/23 09:50:38;;;;;;;6.45;5.05;;;;;;;29.14;40.40;97784.63;10281282;28;20125;-52
2023/07/23 09:55:37;;;;;;;8.38;5.85;;;;;;;29.22;39.88;97793.75;10277991;28;20156;-52
2023/07/23 10:00:36;;;;;;;6.90;4.80;;;;;;;29.30;41.75;97782.50;10280887;28;20076;-52
2023/07/23 10:05:36;;;;;;;7.72;5.18;;;;;;;29.36;41.06;97783.84;10279967;28;20041;-52
2023/07/23 10:10:35;;;;;;;5.75;4.85;;;;;;;29.55;42.23;97772.56;10278321;28;20132;-52
2023/07/23 10:15:37;;;;;;;7.93;5.18;;;;;;;29.37;42.70;97783.75;10283443;28;20108;-52
2023/07/23 10:20:38;;;;;;;6.28;4.80;;;;;;;29.46;43.30;97784.81;10277192;28;20125;-52
2023/07/23 10:25:37;;;;;;;6.60;5.30;;;;;;;29.54;42.76;97774.41;10278249;28;20128;-51
2023/07/23 10:30:36;;;;;;;8.60;5.53;;;;;;;29.59;42.92;97763.34;10276457;28;20049;-50
2023/07/23 10:35:54;;;;;;;6.30;4.75;;;;;;;29.78;42.43;97774.28;10280005;28;20161;-51
2023/07/23 10:40:54;;;;;;;6.40;5.45;;;;;;;29.92;41.82;97774.06;10279036;28;20069;-52
2023/07/23 10:46:04;;;;;;;7.32;4.90;;;;;;;29.68;42.62;97776.84;10281149;28;20073;-51
2023/07/23 10:51:07;;;;;;;7.00;5.05;;;;;;;29.64;42.49;97764.66;10278683;28;20139;-52
2023/07/23 10:56:24;;;;;;;6.70;4.95;;;;;;;29.90;42.35;97776.00;10277970;28;20515;-51
2023/07/23 11:01:25;;;;;;;6.30;5.32;;;;;;;30.13;41.48;97776.84;10278192;28;20564;-51
2023/07/23 11:06:26;;;;;;;7.30;5.45;;;;;;;30.20;41.28;97769.16;10278530;28;20468;-52
2023/07/23 11:11:34;;;;;;;8.93;5.45;;;;;;;30.30;42.14;97770.16;10276725;28;20073;-51
2023/07/23 11:16:35;;;;;;;8.88;5.80;;;;;;;30.01;40.89;97779.66;10279119;28;20129;-52
2023/07/23 11:21:44;;;;;;;8.90;5.70;;;;;;;30.02;40.93;97763.47;10281356;28;20128;-52
2023/07/23 11:26:43;;;;;;;7.22;4.80;;;;;;;30.46;41.14;97767.06;10286172;28;20132;-53
2023/07/23 11:31:44;;;;;;;9.13;6.43;;;;;;;30.73;40.28;97765.78;10285368;28;20716;-53
2023/07/23 11:36:43;;;;;;;8.38;6.28;;;;;;;30.97;40.70;97762.91;10286146;28;20082;-50
2023/07/23 11:41:43;;;;;;;8.40;6.00;;;;;;;30.70;40.35;97772.25;10284800;28;20128;-49
2023/07/23 11:46:42;;;;;;;8.90;5.85;;;;;;;30.54;40.85;97779.84;10285954;28;20069;-53
2023/07/23 11:51:41;;;;;;;8.32;6.50;;;;;;;30.38;42.63;97784.72;10283698;28;20130;-51
2023/07/23 11:56:47;;;;;;;8.25;6.55;;;;;;;30.13;42.77;97778.69;10285149;28;20599;-53
2023/07/23 12:01:46;;;;;;;8.32;6.35;;;;;;;30.20;43.42;97774.53;10284551;28;20077;-52
2023/07/23 12:06:45;;;;;;;8.27;6.20;;;;;;;30.14;43.15;97777.72;10284785;28;20033;-52
2023/07/23 12:11:44;;;;;;;8.02;6.47;;;;;;;30.17;43.47;97779.28;10282262;28;20026;-53
2023/07/23 12:16:46;;;;;;;7.50;6.68;;;;;;;30.24;43.38;97778.66;10284904;28;20081;-52
2023/07/23 12:21:47;;;;;;;10.00;6.45;;;;;;;30.40;43.21;97766.69;10283337;28;20068;-53
2023/07/23 12:27:06;;;;;;;6.55;5.50;;;;;;;29.83;43.25;97772.09;10286454;28;20057;-53
2023/07/23 12:32:09;;;;;;;7.68;6.05;;;;;;;30.09;43.75;97774.53;10287125;28;20077;-49
2023/07/23 12:37:08;;;;;;;8.07;6.03;;;;;;;30.43;42.59;97753.94;10285767;28;20523;-50
2023/07/23 12:42:08;;;;;;;8.38;6.35;;;;;;;30.16;43.77;97782.94;10286813;28;20057;-51
2023/07/23 12:47:07;;;;;;;8.73;6.00;;;;;;;30.20;43.12;97773.69;10286605;28;20116;-51
2023/07/23 12:52:09;;;;;;;8.70;6.47;;;;;;;30.10;43.43;97768.22;10284815;28;20034;-50
2023/07/23 12:57:08;;;;;;;8.60;6.40;;;;;;;30.12;43.54;97776.97;10286942;28;20134;-53
2023/07/23 13:02:07;;;;;;;8.68;6.57;;;;;;;29.94;43.75;97773.09;10285338;28;20126;-52
2023/07/23 13:07:06;;;;;;;10.00;7.00;;;;;;;29.80;43.44;97771.50;10286093;28;20128;-52
2023/07/23 13:12:06;;;;;;;11.57;6.82;;;;;;;29.85;43.35;97780.03;10284184;28;20026;-52
2023/07/23 13:17:05;;;;;;;8.93;6.25;;;;;;;30.07;42.84;97768.44;10285495;28;20073;-51
2023/07/23 13:22:04;;;;;;;8.10;5.82;;;;;;;30.36;42.37;97757.22;10284847;28;20050;-51
2023/07/23 13:27:04;;;;;;;7.68;6.63;;;;;;;30.82;41.79;97742.69;10280528;28;20132;-52
2023/07/23 13:32:03;;;;;;;7.93;6.68;;;;;;;31.12;40.89;97752.69;10281130;28;20066;-50
2023/07/23 13:37:02;;;;;;;11.10;6.80;;;;;;;31.29;40.02;97762.00;10281710;28;20205;-52
2023/07/23 13:42:01;;;;;;;8.55;6.43;;;;;;;30.82;39.14;97748.94;10279757;28;20547;-55
2023/07/23 13:47:00;;;;;;;8.63;6.00;;;;;;;30.68;38.85;97759.94;10281609;28;20514;-51
2023/07/23 13:51:59;;;;;;;25.10;19.83;;;;;;;30.90;39.32;97759.00;10278741;28;20026;-53
2023/07/23 13:56:58;;;;;;;17.02;10.57;;;;;;;30.71;39.48;97767.72;10281481;28;20050;-50
2023/07/23 14:01:57;;;;;;;8.18;6.45;;;;;;;30.69;38.78;97737.53;10279935;28;20124;-51
2023/07/23 14:06:56;;;;;;;12.40;8.65;;;;;;;30.57;38.64;97766.19;10278797;28;20057;-54
2023/07/23 14:11:55;;;;;;;8.77;6.07;;;;;;;30.58;38.55;97767.88;10280400;28;20040;-50
2023/07/23 14:16:54;;;;;;;13.75;10.40;;;;;;;30.69;39.13;97749.09;10278367;28;20133;-51
2023/07/23 14:21:53;;;;;;;8.93;6.30;;;;;;;30.90;37.95;97742.91;10280634;28;20040;-50
2023/07/23 14:26:52;;;;;;;7.70;5.95;;;;;;;30.81;38.13;97736.50;10279390;28;20120;-51
2023/07/23 14:31:51;;;;;;;10.63;7.13;;;;;;;30.83;38.62;97741.75;10279436;28;20048;-50
2023/07/23 14:36:50;;;;;;;21.02;11.52;;;;;;;30.43;38.84;97751.25;10280676;28;20133;-52
2023/07/23 14:41:48;;;;;;;10.68;6.97;;;;;;;30.39;39.20;97756.97;10278006;28;20121;-51
2023/07/23 14:46:47;;;;;;;7.93;5.65;;;;;;;30.64;39.28;97754.00;10278354;28;20129;-51
2023/07/23 14:51:46;;;;;;;7.70;5.85;;;;;;;30.67;38.93;97753.72;10278254;28;20042;-52
2023/07/23 14:56:51;;;;;;;8.23;5.70;;;;;;;30.58;39.05;97730.38;10283187;28;20030;-49
2023/07/23 15:01:50;;;;;;;12.85;6.75;;;;;;;30.85;38.94;97745.16;10287400;28;20065;-51
2023/07/23 15:06:49;;;;;;;7.95;5.32;;;;;;;30.84;37.53;97741.59;10284886;28;20049;-52
2023/07/23 15:11:48;;;;;;;8.00;5.65;;;;;;;30.66;38.12;97737.81;10287409;28;20038;-50
2023/07/23 15:16:47;;;;;;;7.68;5.38;;;;;;;30.17;40.01;97747.19;10287213;28;20084;-53
2023/07/23 15:21:47;;;;;;;41.13;8.55;;;;;;;30.27;40.02;97743.59;10285475;28;20121;-51
2023/07/23 15:26:47;;;;;;;7.35;5.93;;;;;;;30.41;38.16;97744.34;10289317;28;20066;-51
2023/07/23 15:31:46;;;;;;;8.63;5.75;;;;;;;30.56;38.87;97756.44;10287658;28;20132;-53
2023/07/23 15:36:45;;;;;;;7.15;5.75;;;;;;;30.72;37.91;97737.28;10294019;28;20125;-54
2023/07/23 15:41:44;;;;;;;7.78;5.45;;;;;;;30.79;37.22;97730.41;10289026;28;20028;-52
2023/07/23 15:46:43;;;;;;;6.32;5.32;;;;;;;30.67;36.55;97718.91;10288234;28;20046;-51
2023/07/23 15:51:42;;;;;;;10.98;7.47;;;;;;;30.57;36.91;97701.91;10289192;28;20100;-51
2023/07/23 15:56:41;;;;;;;7.70;6.10;;;;;;;30.50;36.72;97738.22;10287894;28;20030;-50
2023/07/23 16:01:40;;;;;;;8.85;5.90;;;;;;;30.39;37.25;97730.19;10288734;28;20036;-52
2023/07/23 16:06:39;;;;;;;9.23;6.78;;;;;;;30.27;37.42;97740.09;10284745;28;20070;-52
2023/07/23 16:11:38;;;;;;;7.80;5.70;;;;;;;30.12;37.17;97750.22;10288488;28;20068;-51
2023/07/23 16:16:37;;;;;;;9.38;6.50;;;;;;;29.88;37.74;97747.69;10286574;28;20148;-52
2023/07/23 16:21:36;;;;;;;8.52;6.70;;;;;;;29.97;38.57;97746.94;10286901;28;20052;-51
2023/07/23 16:26:35;;;;;;;9.68;6.68;;;;;;;30.03;38.67;97750.97;10283039;28;20148;-51
2023/07/23 16:31:34;;;;;;;8.60;6.35;;;;;;;30.03;38.39;97745.63;10283932;28;20045;-52
2023/07/23 16:36:34;;;;;;;8.07;6.43;;;;;;;29.83;38.85;97745.34;10283101;28;20036;-52
2023/07/23 16:41:33;;;;;;;10.48;6.35;;;;;;;29.71;39.42;97741.81;10283274;28;20133;-52
2023/07/23 16:46:34;;;;;;;21.75;15.07;;;;;;;29.54;39.47;97738.78;10282568;28;20165;-52
2023/07/23 16:51:33;;;;;;;21.30;14.98;;;;;;;29.46;39.84;97750.06;10284036;28;20591;-50
2023/07/23 16:56:32;;;;;;;10.20;7.63;;;;;;;29.36;39.67;97739.25;10287474;28;20060;-53
2023/07/23 17:01:31;;;;;;;12.43;7.65;;;;;;;29.25;40.17;97739.19;10281015;28;20025;-53
2023/07/23 17:06:30;;;;;;;10.02;7.10;;;;;;;29.10;40.49;97741.25;10283309;28;20045;-52
2023/07/23 17:11:29;;;;;;;9.85;7.20;;;;;;;28.85;41.13;97736.91;10282276;28;20030;-50
2023/07/23 17:16:28;;;;;;;10.55;7.57;;;;;;;28.45;41.00;97739.88;10283119;28;20544;-53
2023/07/23 17:21:26;;;;;;;9.30;7.13;;;;;;;28.38;41.67;97746.63;10281274;28;20030;-50
2023/07/23 17:26:25;;;;;;;9.73;7.25;;;;;;;28.31;41.66;97738.22;10280019;28;20061;-52
2023/07/23 17:31:26;;;;;;;8.57;7.35;;;;;;;28.23;42.48;97752.13;10280861;28;20140;-53
2023/07/23 17:36:26;;;;;;;9.05;7.30;;;;;;;28.03;42.53;97744.69;10278937;28;20069;-51
2023/07/23 17:41:24;;;;;;;10.00;7.47;;;;;;;27.88;42.82;97745.81;10281262;28;20153;-52
2023/07/23 17:46:24;;;;;;;12.32;7.82;;;;;;;27.75;43.70;97752.03;10279428;28;20041;-52
2023/07/23 17:51:23;;;;;;;12.93;7.45;;;;;;;27.57;45.85;97753.34;10282180;28;20092;-50
2023/07/23 17:56:22;;;;;;;14.35;8.73;;;;;;;27.29;47.12;97757.88;10279796;28;20025;-52
2023/07/23 18:01:20;;;;;;;13.32;8.13;;;;;;;27.07;48.02;97760.31;10278517;28;21220;-52
2023/07/23 18:06:19;;;;;;;11.45;8.55;;;;;;;26.82;48.25;97763.75;10279458;28;20590;-52
2023/07/23 18:11:18;;;;;;;12.07;8.98;;;;;;;26.61;49.02;97776.69;10278880;28;20103;-52
2023/07/23 18:16:17;;;;;;;11.55;8.27;;;;;;;26.39;49.58;97778.06;10279073;28;20488;-54
2023/07/23 18:21:16;;;;;;;10.65;7.72;;;;;;;26.12;50.15;97786.84;10280770;28;20458;-53
2023/07/23 18:26:15;;;;;;;11.07;7.47;;;;;;;25.89;50.80;97782.97;10281222;28;20065;-51
2023/07/23 18:31:15;;;;;;;10.77;7.72;;;;;;;25.67;51.56;97788.78;10281795;28;20048;-52
2023/07/23 18:36:16;;;;;;;9.77;7.78;;;;;;;25.45;52.14;97799.00;10283946;28;20077;-52
2023/07/23 18:41:15;;;;;;;11.38;7.57;;;;;;;25.17;52.98;97802.44;10282030;28;20077;-51
2023/07/23 18:46:14;;;;;;;9.70;7.38;;;;;;;24.94;53.33;97809.97;10282403;28;20038;-51
2023/07/23 18:51:13;;;;;;;11.57;7.75;;;;;;;24.73;53.93;97811.19;10281974;28;20125;-52
2023/07/23 18:56:13;;;;;;;13.82;9.93;;;;;;;24.56;55.69;97817.47;10284410;28;20046;-51
2023/07/23 19:01:12;;;;;;;12.00;9.02;;;;;;;24.19;56.63;97791.22;10284040;28;20066;-52
2023/07/23 19:06:11;;;;;;;14.15;10.07;;;;;;;24.13;57.50;97812.72;10281101;28;20056;-51
2023/07/23 19:11:10;;;;;;;16.80;10.68;;;;;;;24.02;58.18;97813.31;10282852;28;20034;-52
2023/07/23 19:16:09;;;;;;;15.95;10.77;;;;;;;23.88;58.80;97818.50;10279828;28;20117;-51
2023/07/23 19:21:08;;;;;;;18.15;10.80;;;;;;;23.77;59.86;97821.75;10282116;28;20105;-50
2023/07/23 19:26:08;;;;;;;17.38;10.35;;;;;;;23.63;60.45;97835.72;10278561;28;20129;-50
2023/07/23 19:31:07;;;;;;;14.80;9.93;;;;;;;23.54;60.98;97830.91;10275905;28;20587;-52
2023/07/23 19:36:06;;;;;;;12.57;9.13;;;;;;;23.41;61.01;97837.75;10278421;28;20077;-51
2023/07/23 19:41:05;;;;;;;13.63;9.98;;;;;;;23.32;61.24;97840.84;10278332;28;20037;-51
2023/07/23 19:46:03;;;;;;;13.23;9.90;;;;;;;23.13;61.34;97825.06;10286091;28;20438;-51
2023/07/23 19:51:02;;;;;;;14.10;10.00;;;;;;;23.10;61.58;97841.09;10283552;28;20034;-51
2023/07/23 19:56:01;;;;;;;14.38;9.65;;;;;;;23.05;62.21;97846.63;10283516;28;20053;-51
2023/07/23 20:01:01;;;;;;;20.85;14.02;;;;;;;22.88;64.20;97851.88;10286328;28;20066;-50
2023/07/23 20:06:00;;;;;;;17.10;11.55;;;;;;;22.80;65.49;97852.28;10284154;28;20128;-52
2023/07/23 20:11:00;;;;;;;15.00;10.73;;;;;;;22.61;66.39;97860.22;10284517;28;20040;-50
2023/07/23 20:15:59;;;;;;;15.25;10.02;;;;;;;22.51;67.92;97866.88;10284645;28;20132;-52
2023/07/23 20:20:59;;;;;;;13.18;9.88;;;;;;;22.30;68.32;97858.19;10282642;28;20032;-49
2023/07/23 20:25:58;;;;;;;13.15;9.52;;;;;;;22.17;68.10;97856.06;10284458;28;20150;-52
2023/07/23 20:30:57;;;;;;;16.23;10.30;;;;;;;22.06;68.71;97858.38;10287975;28;20500;-52
2023/07/23 20:35:57;;;;;;;15.93;10.23;;;;;;;21.92;69.39;97856.34;10281966;28;20136;-52
2023/07/23 20:40:57;;;;;;;18.13;10.13;;;;;;;21.82;70.18;97852.38;10281998;28;20064;-53
2023/07/23 20:45:56;;;;;;;14.35;10.43;;;;;;;21.63;70.52;97835.63;10282773;28;20060;-53
2023/07/23 20:50:55;;;;;;;14.05;10.63;;;;;;;21.46;70.67;97825.84;10281736;28;20069;-53
2023/07/23 20:55:54;;;;;;;14.63;10.95;;;;;;;21.36;71.09;97824.50;10282003;28;20126;-53
2023/07/23 21:00:53;;;;;;;16.25;11.23;;;;;;;21.58;71.82;97861.41;10281513;28;20149;-52
2023/07/23 21:05:53;;;;;;;14.48;10.93;;;;;;;21.51;72.47;97860.81;10283113;28;20452;-51
2023/07/23 21:10:52;;;;;;;15.75;10.93;;;;;;;21.50;72.54;97864.34;10281400;28;20109;-51
2023/07/23 21:15:52;;;;;;;15.50;10.77;;;;;;;21.41;72.96;97867.41;10284264;28;20058;-51
2023/07/23 21:20:52;;;;;;;18.73;10.90;;;;;;;21.36;73.69;97878.19;10280724;28;20069;-52
2023/07/23 21:25:51;;;;;;;14.52;11.20;;;;;;;21.21;74.43;97873.53;10282005;28;20116;-52
2023/07/23 21:30:50;;;;;;;19.20;13.82;;;;;;;21.07;75.07;97877.56;10281283;28;20060;-51
2023/07/23 21:35:49;;;;;;;19.63;13.38;;;;;;;20.77;76.77;97884.09;10281163;28;20530;-52
2023/07/23 21:40:52;;;;;;;16.55;12.13;;;;;;;20.64;75.99;97855.59;10280789;28;20550;-52
2023/07/23 21:45:51;;;;;;;17.48;13.30;;;;;;;20.79;75.74;97882.25;10277999;28;20488;-51
2023/07/23 21:50:50;;;;;;;23.13;15.50;;;;;;;20.70;77.11;97881.72;10280464;28;20540;-52
2023/07/23 21:55:50;;;;;;;20.58;13.68;;;;;;;20.60;77.99;97877.72;10280219;28;20045;-52
2023/07/23 22:00:49;;;;;;;16.27;11.88;;;;;;;20.47;78.64;97872.06;10280343;28;20050;-51
2023/07/23 22:05:48;;;;;;;16.15;11.65;;;;;;;20.28;79.10;97860.47;10277932;28;20041;-51
2023/07/23 22:10:47;;;;;;;17.67;12.55;;;;;;;20.32;79.09;97867.34;10276377;28;20558;-51
2023/07/23 22:15:46;;;;;;;22.83;12.75;;;;;;;20.17;79.35;97858.28;10275367;28;20455;-50
2023/07/23 22:20:45;;;;;;;19.65;13.18;;;;;;;20.14;79.66;97868.06;10275445;28;20125;-51
2023/07/23 22:25:44;;;;;;;18.77;13.57;;;;;;;20.12;79.94;97862.84;10278576;28;20129;-48
2023/07/23 22:30:43;;;;;;;19.98;12.52;;;;;;;19.98;80.05;97836.19;10279494;28;20808;-52
2023/07/23 22:35:42;;;;;;;17.10;12.20;;;;;;;20.02;80.13;97856.19;10279755;28;20522;-52
2023/07/23 22:40:41;;;;;;;17.45;12.18;;;;;;;19.97;80.73;97852.88;10280180;28;20411;-49
2023/07/23 22:45:41;;;;;;;18.02;12.75;;;;;;;19.95;81.08;97849.44;10279242;28;20049;-51
2023/07/23 22:50:40;;;;;;;18.33;13.07;;;;;;;19.83;82.03;97843.72;10278541;28;20069;-51
2023/07/23 22:55:39;;;;;;;17.20;11.73;;;;;;;19.77;83.12;97853.63;10277185;28;20566;-49